You are listening to:
SAEZ ATIS - Buenos Aires, Argentina

SAEZ 152200Z VRB02KT CAVOK 08/04 Q1022 NOSIG

If stream does not start automatically press the play button